Time;durP1;ratioP1;P1;durP2;ratioP2;P2;SDS_P1;SDS_P2;PMS_P1;PMS_P2;Temp;Humidity;BMP_temperature;BMP_pressure;BME280_temperature;BME280_humidity;BME280_pressure;Samples;Min_cycle;Max_cycle;Signal;HPM_P1;HPM_P2
2022/03/17 00:04:53;;;;;;;2.22;1.17;;;9.80;65.00;;;;;;20691223;28;20045;-73
2022/03/17 00:14:53;;;;;;;4.77;1.67;;;9.80;65.00;;;;;;20690267;28;20418;-75
2022/03/17 00:24:54;;;;;;;2.60;1.40;;;9.80;65.00;;;;;;20690396;28;20284;-74
2022/03/17 00:45:14;;;;;;;3.95;2.08;;;9.80;65.00;;;;;;20726134;28;20030;-73
2022/03/17 00:55:14;;;;;;;2.88;1.60;;;9.80;65.00;;;;;;20703867;28;20065;-74
2022/03/17 01:05:15;;;;;;;5.00;1.55;;;9.80;65.00;;;;;;20703128;28;20103;-74
2022/03/17 01:15:17;;;;;;;3.50;1.40;;;9.80;65.00;;;;;;20701700;28;20621;-74
2022/03/17 01:25:18;;;;;;;3.08;1.55;;;9.80;65.00;;;;;;20685984;28;20031;-74
2022/03/17 01:35:19;;;;;;;3.55;2.17;;;9.80;65.00;;;;;;20701055;28;20040;-73
2022/03/17 01:45:19;;;;;;;3.55;2.03;;;9.80;65.00;;;;;;20683435;28;20034;-73
2022/03/17 01:55:21;;;;;;;4.25;2.20;;;9.80;65.00;;;;;;20683587;28;20077;-75
2022/03/17 02:15:34;;;;;;;4.65;2.83;;;9.80;65.00;;;;;;20759995;28;20046;-71
2022/03/17 02:25:35;;;;;;;4.63;2.40;;;9.80;65.00;;;;;;20716044;28;20396;-72
2022/03/17 02:35:37;;;;;;;4.68;2.63;;;9.80;65.10;;;;;;20733042;28;20116;-72
2022/03/17 02:45:37;;;;;;;4.60;2.60;;;9.80;65.00;;;;;;20731955;28;20040;-75
2022/03/17 02:55:39;;;;;;;4.97;2.50;;;9.80;65.10;;;;;;20715093;28;20136;-72
2022/03/17 03:05:40;;;;;;;4.43;2.65;;;9.80;65.10;;;;;;20713150;28;20038;-71
2022/03/17 03:15:41;;;;;;;4.38;2.05;;;9.80;65.00;;;;;;20713745;28;20490;-71
2022/03/17 03:25:42;;;;;;;3.30;2.10;;;9.80;65.10;;;;;;20729330;28;20026;-70
2022/03/17 03:46:02;;;;;;;5.80;3.17;;;9.80;65.10;;;;;;20794900;28;20148;-71
2022/03/17 03:56:02;;;;;;;4.88;2.70;;;9.80;65.10;;;;;;20825635;28;20080;-70
2022/03/17 04:06:03;;;;;;;6.60;3.13;;;9.80;65.10;;;;;;20794038;28;20401;-71
2022/03/17 04:16:04;;;;;;;5.70;3.38;;;9.80;65.10;;;;;;20825780;28;20469;-71
2022/03/17 04:26:04;;;;;;;6.20;3.20;;;9.80;65.10;;;;;;20825380;28;20036;-71
2022/03/17 04:36:05;;;;;;;5.93;2.63;;;9.80;65.10;;;;;;20806691;28;20128;-71
2022/03/17 04:46:08;;;;;;;4.88;2.72;;;9.80;65.10;;;;;;20789844;28;20420;-72
2022/03/17 04:56:10;;;;;;;4.43;2.60;;;9.80;65.10;;;;;;20804858;28;20042;-71
2022/03/17 05:06:12;;;;;;;6.90;3.28;;;9.80;65.10;;;;;;20788198;28;20038;-70
2022/03/17 05:16:14;;;;;;;4.85;2.90;;;9.80;65.80;;;;;;20820354;28;20041;-70
2022/03/17 05:26:15;;;;;;;6.05;3.60;;;9.80;65.20;;;;;;20818793;28;20033;-70
2022/03/17 05:36:15;;;;;;;4.93;2.72;;;9.90;65.20;;;;;;20817895;28;20037;-70
2022/03/17 05:46:16;;;;;;;5.18;3.22;;;9.80;65.10;;;;;;20815632;28;20057;-71
2022/03/17 05:56:17;;;;;;;5.85;3.70;;;9.80;65.10;;;;;;20801407;28;20117;-72
2022/03/17 06:06:17;;;;;;;6.22;3.17;;;9.80;65.20;;;;;;20784596;28;20045;-71
2022/03/17 06:16:20;;;;;;;5.35;3.17;;;9.80;65.20;;;;;;20782852;28;20029;-70
2022/03/17 06:26:21;;;;;;;7.07;3.47;;;9.80;65.20;;;;;;20799402;28;20033;-75
2022/03/17 06:36:22;;;;;;;5.85;3.33;;;9.80;65.20;;;;;;20780567;28;20560;-72
2022/03/17 06:46:23;;;;;;;4.70;3.35;;;9.70;65.10;;;;;;20781123;28;20030;-70
2022/03/17 06:56:23;;;;;;;6.13;3.10;;;9.70;65.20;;;;;;20812053;28;20531;-70
2022/03/17 07:06:24;;;;;;;6.22;3.40;;;9.80;65.20;;;;;;20783915;28;20381;-70
2022/03/17 07:16:24;;;;;;;6.32;3.65;;;9.80;65.30;;;;;;20746589;28;20129;-73
2022/03/17 07:26:27;;;;;;;6.63;3.40;;;9.80;65.20;;;;;;20712672;28;20026;-75
2022/03/17 07:36:27;;;;;;;4.78;2.58;;;9.70;65.10;;;;;;20787087;28;20037;-77
2022/03/17 07:46:28;;;;;;;4.83;2.83;;;9.80;65.20;;;;;;20810635;28;20026;-77
2022/03/17 07:56:51;;;;;;;5.20;3.05;;;9.80;65.20;;;;;;20782379;28;20303;-79
2022/03/17 08:06:53;;;;;;;4.50;2.90;;;9.70;65.20;;;;;;20772966;28;20030;-78
2022/03/17 08:16:55;;;;;;;3.70;2.55;;;9.80;65.30;;;;;;20764356;28;20387;-82
2022/03/17 08:26:56;;;;;;;4.70;2.80;;;9.80;65.20;;;;;;20691337;28;20049;-77
2022/03/17 08:36:56;;;;;;;4.68;2.80;;;9.70;65.10;;;;;;20711355;28;20036;-79
2022/03/17 08:57:17;;;;;;;4.35;3.10;;;9.80;65.20;;;;;;20755190;28;20041;-79
2022/03/17 09:07:18;;;;;;;3.83;2.13;;;9.80;65.20;;;;;;20776961;28;20044;-80
2022/03/17 09:17:21;;;;;;;4.45;2.60;;;9.80;65.10;;;;;;20774769;28;20040;-78
2022/03/17 09:27:23;;;;;;;3.97;2.38;;;9.80;65.20;;;;;;20804311;28;20416;-78
2022/03/17 09:37:23;;;;;;;3.88;2.38;;;9.80;65.10;;;;;;20803000;28;20404;-79
2022/03/17 09:47:27;;;;;;;3.85;2.78;;;9.80;65.10;;;;;;20739061;28;20045;-79
2022/03/17 09:57:27;;;;;;;3.38;1.95;;;9.80;65.00;;;;;;20735828;28;20034;-78
2022/03/17 10:07:28;;;;;;;3.95;2.47;;;9.80;65.00;;;;;;20750768;28;20046;-80
2022/03/17 10:17:33;;;;;;;3.35;1.98;;;9.90;65.10;;;;;;20728274;28;20451;-78
2022/03/17 10:27:42;;;;;;;4.32;2.42;;;9.80;65.00;;;;;;20751084;28;20037;-78
2022/03/17 10:37:46;;;;;;;2.95;1.85;;;9.80;65.00;;;;;;20747119;28;20083;-75
2022/03/17 10:47:48;;;;;;;3.90;2.13;;;9.90;65.10;;;;;;20746414;28;20049;-80
2022/03/17 10:57:50;;;;;;;4.05;2.03;;;9.80;65.00;;;;;;20697806;28;20087;-80
2022/03/17 11:07:53;;;;;;;3.95;2.60;;;9.80;65.00;;;;;;20731469;28;20038;-81
2022/03/17 11:17:54;;;;;;;4.65;2.63;;;9.80;65.00;;;;;;20789583;28;20037;-79
2022/03/17 11:27:59;;;;;;;5.22;3.95;;;9.80;65.10;;;;;;20812533;28;20029;-78
2022/03/17 11:38:16;;;;;;;5.05;3.40;;;9.90;65.30;;;;;;20795834;28;20152;-74
2022/03/17 11:48:16;;;;;;;7.47;4.50;;;9.80;65.40;;;;;;20790269;28;20030;-73
2022/03/17 11:58:25;;;;;;;7.15;5.05;;;9.80;65.50;;;;;;20788942;28;20313;-69
2022/03/17 12:08:41;;;;;;;8.63;4.68;;;9.80;65.70;;;;;;20788091;28;20648;-68
2022/03/17 12:19:00;;;;;;;8.40;5.13;;;9.80;65.90;;;;;;20787411;28;20049;-68
2022/03/17 12:29:01;;;;;;;13.30;5.93;;;9.80;66.00;;;;;;20775982;28;20059;-68
2022/03/17 12:39:02;;;;;;;9.82;5.63;;;9.80;66.30;;;;;;20819442;28;20132;-69
2022/03/17 12:49:07;;;;;;;7.65;5.30;;;9.80;66.40;;;;;;20754381;28;20064;-75
2022/03/17 12:59:07;;;;;;;8.13;5.15;;;9.80;66.70;;;;;;20704308;28;20034;-71
2022/03/17 13:09:11;;;;;;;9.35;5.53;;;9.80;67.00;;;;;;20735546;28;20049;-75
2022/03/17 13:19:11;;;;;;;9.25;5.45;;;9.80;67.20;;;;;;20735184;28;20566;-78
2022/03/17 13:29:13;;;;;;;9.40;5.77;;;9.80;67.50;;;;;;20815229;28;20109;-74
2022/03/17 13:39:15;;;;;;;9.65;5.60;;;9.80;67.80;;;;;;20799096;28;20691;-77
2022/03/17 13:49:16;;;;;;;9.85;5.18;;;9.80;68.10;;;;;;20785865;28;20033;-80
2022/03/17 13:59:17;;;;;;;10.95;5.10;;;9.80;68.20;;;;;;20746715;28;20034;-75
2022/03/17 14:09:20;;;;;;;7.90;4.32;;;9.80;68.50;;;;;;20790525;28;20147;-74
2022/03/17 14:19:21;;;;;;;8.73;4.13;;;9.80;68.70;;;;;;20734163;28;20077;-79
2022/03/17 14:29:21;;;;;;;8.25;3.70;;;9.80;68.80;;;;;;20714049;28;20505;-76
2022/03/17 14:39:22;;;;;;;4.72;3.17;;;9.80;68.70;;;;;;20728909;28;20046;-77
2022/03/17 14:49:23;;;;;;;8.52;3.75;;;9.80;69.50;;;;;;20804629;28;20077;-75
2022/03/17 14:59:25;;;;;;;4.68;3.17;;;9.80;69.00;;;;;;20743753;28;20056;-76
2022/03/17 15:09:26;;;;;;;4.60;3.13;;;9.80;69.20;;;;;;20766387;28;20435;-78
2022/03/17 15:19:27;;;;;;;6.57;3.65;;;9.80;69.40;;;;;;20788127;28;20034;-79
2022/03/17 15:39:46;;;;;;;7.50;2.45;;;9.80;69.90;;;;;;20717392;28;20041;-75
2022/03/17 15:49:47;;;;;;;6.50;2.22;;;9.80;70.00;;;;;;20677935;28;20128;-77
2022/03/17 15:59:47;;;;;;;21.65;5.80;;;9.80;70.60;;;;;;20693409;28;20042;-75
2022/03/17 16:20:09;;;;;;;13.23;3.17;;;9.80;71.40;;;;;;20789580;28;20120;-76
2022/03/17 16:30:10;;;;;;;12.05;2.80;;;9.90;71.40;;;;;;20777935;28;20057;-75
2022/03/17 16:40:15;;;;;;;8.30;2.42;;;9.90;71.20;;;;;;20786583;28;20046;-76
2022/03/17 16:50:16;;;;;;;12.75;3.30;;;9.90;71.30;;;;;;20787957;28;20099;-75
2022/03/17 17:00:17;;;;;;;15.40;3.58;;;10.00;71.40;;;;;;20779126;28;20041;-78
2022/03/17 17:10:19;;;;;;;5.60;1.92;;;10.00;71.50;;;;;;20769149;28;20454;-77
2022/03/17 17:20:20;;;;;;;9.23;2.58;;;10.00;71.40;;;;;;20794945;28;20038;-77
2022/03/17 17:40:40;;;;;;;7.28;2.05;;;9.90;70.90;;;;;;20790449;28;20121;-75
2022/03/17 17:50:43;;;;;;;4.55;1.98;;;9.90;70.60;;;;;;20753314;28;20128;-81
2022/03/17 18:00:43;;;;;;;7.50;1.95;;;9.90;70.60;;;;;;20757325;28;20041;-77
2022/03/17 18:10:47;;;;;;;10.20;2.70;;;9.90;70.50;;;;;;20809817;28;20401;-83
2022/03/17 18:20:49;;;;;;;4.50;2.10;;;9.90;70.40;;;;;;20799942;28;20057;-81
2022/03/17 18:30:51;;;;;;;8.18;2.00;;;9.90;70.20;;;;;;20794959;28;20034;-79
2022/03/17 18:40:54;;;;;;;4.75;2.10;;;9.90;70.10;;;;;;20777808;28;20083;-78
2022/03/17 18:50:55;;;;;;;5.22;1.77;;;9.80;69.90;;;;;;20793016;28;20060;-80
2022/03/17 19:00:56;;;;;;;6.25;1.52;;;9.80;69.80;;;;;;20791773;28;20095;-81
2022/03/17 19:10:58;;;;;;;2.70;1.02;;;9.80;69.70;;;;;;20799164;28;20076;-79
2022/03/17 19:20:58;;;;;;;4.28;1.38;;;9.80;69.70;;;;;;20797415;28;20470;-79
2022/03/17 19:30:59;;;;;;;3.47;1.70;;;9.80;69.50;;;;;;20796183;28;20086;-78
2022/03/17 19:41:10;;;;;;;4.55;1.33;;;9.80;69.40;;;;;;20763013;28;20045;-79
2022/03/17 19:51:11;;;;;;;2.75;1.27;;;9.80;69.30;;;;;;20792928;28;20036;-83
2022/03/17 20:01:12;;;;;;;3.20;1.85;;;9.80;69.20;;;;;;20726418;28;20120;-78
2022/03/17 20:21:31;;;;;;;2.53;1.13;;;9.70;69.10;;;;;;20726879;28;20081;-78
2022/03/17 20:31:32;;;;;;;3.92;1.15;;;9.70;69.00;;;;;;20693257;28;20076;-79
2022/03/17 20:41:34;;;;;;;2.60;0.88;;;9.70;68.90;;;;;;20724870;28;20083;-78
2022/03/17 20:51:35;;;;;;;3.72;1.23;;;9.70;68.80;;;;;;20767881;28;20388;-79
2022/03/17 21:01:36;;;;;;;1.67;0.90;;;9.70;68.70;;;;;;20778209;28;20037;-79
2022/03/17 21:11:37;;;;;;;1.17;0.82;;;9.70;68.60;;;;;;20804105;28;20060;-78
2022/03/17 21:21:38;;;;;;;3.67;1.38;;;9.70;68.50;;;;;;20819418;28;20278;-79
2022/03/17 21:31:38;;;;;;;4.22;1.60;;;9.70;68.40;;;;;;20820133;28;20037;-79
2022/03/17 21:41:39;;;;;;;2.67;1.00;;;9.70;68.30;;;;;;20802475;28;20030;-79
2022/03/17 21:51:40;;;;;;;2.13;1.05;;;9.70;68.30;;;;;;20799717;28;20478;-79
2022/03/17 22:01:41;;;;;;;1.30;0.70;;;9.70;68.20;;;;;;20741706;28;20037;-80
2022/03/17 22:11:41;;;;;;;1.10;0.77;;;9.60;68.00;;;;;;20720375;28;20773;-79
2022/03/17 22:21:45;;;;;;;1.52;0.80;;;9.60;67.90;;;;;;20716900;28;20095;-78
2022/03/17 22:31:46;;;;;;;1.88;0.95;;;9.60;67.90;;;;;;20700447;28;20631;-78
2022/03/17 22:41:47;;;;;;;2.20;1.33;;;9.60;67.80;;;;;;20715254;28;20096;-79
2022/03/17 22:51:48;;;;;;;4.18;1.60;;;9.60;67.70;;;;;;20715689;28;20273;-78
2022/03/17 23:01:52;;;;;;;2.58;1.55;;;9.60;67.70;;;;;;20743850;28;20029;-79
2022/03/17 23:11:53;;;;;;;2.70;1.40;;;9.60;67.50;;;;;;20730661;28;20052;-79
2022/03/17 23:21:54;;;;;;;4.57;1.80;;;9.60;67.50;;;;;;20729907;28;20048;-79
2022/03/17 23:31:56;;;;;;;3.40;1.70;;;9.60;67.40;;;;;;20713200;28;20445;-76
2022/03/17 23:41:56;;;;;;;3.45;1.48;;;9.60;67.40;;;;;;20696882;28;20441;-79
